sensor_id;sensor_type;location;lat;lon;timestamp;P1;durP1;ratioP1;P2;durP2;ratioP2
19645;SDS011;9971;52.446;13.452;2024-03-23T00:52:15;4.43;;;1.90;;
19645;SDS011;9971;52.446;13.452;2024-03-23T00:57:18;3.67;;;1.85;;
19645;SDS011;9971;52.446;13.452;2024-03-23T01:02:20;3.95;;;2.20;;
19645;SDS011;9971;52.446;13.452;2024-03-23T01:07:23;2.75;;;1.62;;
19645;SDS011;9971;52.446;13.452;2024-03-23T01:12:25;3.92;;;1.87;;
19645;SDS011;9971;52.446;13.452;2024-03-23T01:17:28;3.62;;;1.67;;
19645;SDS011;9971;52.446;13.452;2024-03-23T01:22:30;4.60;;;1.67;;
19645;SDS011;9971;52.446;13.452;2024-03-23T01:27:33;4.00;;;2.30;;
19645;SDS011;9971;52.446;13.452;2024-03-23T01:32:35;4.35;;;2.10;;
19645;SDS011;9971;52.446;13.452;2024-03-23T01:37:38;3.33;;;1.65;;
19645;SDS011;9971;52.446;13.452;2024-03-23T01:42:40;4.53;;;2.10;;
19645;SDS011;9971;52.446;13.452;2024-03-23T01:47:43;2.75;;;1.55;;
19645;SDS011;9971;52.446;13.452;2024-03-23T01:52:45;4.57;;;1.77;;
19645;SDS011;9971;52.446;13.452;2024-03-23T01:57:47;5.33;;;2.23;;
19645;SDS011;9971;52.446;13.452;2024-03-23T02:02:49;3.35;;;2.10;;
19645;SDS011;9971;52.446;13.452;2024-03-23T02:07:51;3.45;;;1.77;;
19645;SDS011;9971;52.446;13.452;2024-03-23T02:12:54;3.97;;;2.17;;
19645;SDS011;9971;52.446;13.452;2024-03-23T02:17:56;3.55;;;1.87;;
19645;SDS011;9971;52.446;13.452;2024-03-23T02:22:59;3.47;;;1.82;;
19645;SDS011;9971;52.446;13.452;2024-03-23T02:28:01;3.60;;;1.72;;
19645;SDS011;9971;52.446;13.452;2024-03-23T02:33:04;4.95;;;2.42;;
19645;SDS011;9971;52.446;13.452;2024-03-23T02:38:06;3.67;;;1.92;;
19645;SDS011;9971;52.446;13.452;2024-03-23T02:43:09;5.42;;;2.52;;
19645;SDS011;9971;52.446;13.452;2024-03-23T02:48:11;3.85;;;1.98;;
19645;SDS011;9971;52.446;13.452;2024-03-23T02:53:14;4.15;;;2.08;;
19645;SDS011;9971;52.446;13.452;2024-03-23T02:58:16;4.95;;;2.02;;
19645;SDS011;9971;52.446;13.452;2024-03-23T03:03:19;3.37;;;1.98;;
19645;SDS011;9971;52.446;13.452;2024-03-23T03:08:22;4.20;;;2.50;;
19645;SDS011;9971;52.446;13.452;2024-03-23T03:13:25;5.30;;;2.13;;
19645;SDS011;9971;52.446;13.452;2024-03-23T03:18:28;4.28;;;2.35;;
19645;SDS011;9971;52.446;13.452;2024-03-23T03:23:32;5.00;;;1.73;;
19645;SDS011;9971;52.446;13.452;2024-03-23T03:28:34;5.28;;;2.17;;
19645;SDS011;9971;52.446;13.452;2024-03-23T03:33:37;3.70;;;2.05;;
19645;SDS011;9971;52.446;13.452;2024-03-23T03:38:39;3.45;;;2.02;;
19645;SDS011;9971;52.446;13.452;2024-03-23T03:43:42;5.33;;;2.47;;
19645;SDS011;9971;52.446;13.452;2024-03-23T03:48:44;5.17;;;2.52;;
19645;SDS011;9971;52.446;13.452;2024-03-23T03:53:46;5.08;;;2.05;;
19645;SDS011;9971;52.446;13.452;2024-03-23T03:58:49;5.25;;;2.30;;
19645;SDS011;9971;52.446;13.452;2024-03-23T04:03:51;4.97;;;1.85;;
19645;SDS011;9971;52.446;13.452;2024-03-23T04:08:54;3.58;;;1.90;;
19645;SDS011;9971;52.446;13.452;2024-03-23T04:13:56;3.20;;;1.90;;
19645;SDS011;9971;52.446;13.452;2024-03-23T04:18:59;3.45;;;1.55;;
19645;SDS011;9971;52.446;13.452;2024-03-23T04:24:01;3.70;;;1.92;;
19645;SDS011;9971;52.446;13.452;2024-03-23T04:29:04;5.40;;;2.25;;
19645;SDS011;9971;52.446;13.452;2024-03-23T04:34:06;2.52;;;1.40;;
19645;SDS011;9971;52.446;13.452;2024-03-23T04:39:09;4.40;;;2.12;;
19645;SDS011;9971;52.446;13.452;2024-03-23T04:44:11;2.92;;;1.95;;
19645;SDS011;9971;52.446;13.452;2024-03-23T04:49:14;4.20;;;2.08;;
19645;SDS011;9971;52.446;13.452;2024-03-23T04:54:16;2.27;;;1.60;;
19645;SDS011;9971;52.446;13.452;2024-03-23T04:59:19;1.62;;;1.17;;
19645;SDS011;9971;52.446;13.452;2024-03-23T05:04:21;1.52;;;1.10;;
19645;SDS011;9971;52.446;13.452;2024-03-23T05:09:24;1.02;;;0.80;;
19645;SDS011;9971;52.446;13.452;2024-03-23T05:14:26;2.53;;;1.10;;
19645;SDS011;9971;52.446;13.452;2024-03-23T05:19:29;0.78;;;0.50;;
19645;SDS011;9971;52.446;13.452;2024-03-23T05:24:31;0.30;;;0.30;;
19645;SDS011;9971;52.446;13.452;2024-03-23T05:29:34;0.10;;;0.10;;
19645;SDS011;9971;52.446;13.452;2024-03-23T05:34:36;0.10;;;0.10;;
19645;SDS011;9971;52.446;13.452;2024-03-23T05:39:39;0.00;;;0.00;;
19645;SDS011;9971;52.446;13.452;2024-03-23T05:44:42;0.13;;;0.10;;
19645;SDS011;9971;52.446;13.452;2024-03-23T05:49:44;0.10;;;0.10;;
19645;SDS011;9971;52.446;13.452;2024-03-23T05:54:45;0.10;;;0.10;;
19645;SDS011;9971;52.446;13.452;2024-03-23T05:59:48;0.30;;;0.30;;
19645;SDS011;9971;52.446;13.452;2024-03-23T06:04:50;0.10;;;0.10;;
19645;SDS011;9971;52.446;13.452;2024-03-23T06:09:53;0.10;;;0.10;;
19645;SDS011;9971;52.446;13.452;2024-03-23T06:14:55;0.00;;;0.00;;
19645;SDS011;9971;52.446;13.452;2024-03-23T06:19:57;0.10;;;0.10;;
19645;SDS011;9971;52.446;13.452;2024-03-23T06:25:00;0.10;;;0.10;;
19645;SDS011;9971;52.446;13.452;2024-03-23T06:30:03;0.10;;;0.10;;
19645;SDS011;9971;52.446;13.452;2024-03-23T06:35:05;0.20;;;0.17;;
19645;SDS011;9971;52.446;13.452;2024-03-23T06:40:08;0.13;;;0.10;;
19645;SDS011;9971;52.446;13.452;2024-03-23T06:45:11;0.20;;;0.20;;
19645;SDS011;9971;52.446;13.452;2024-03-23T06:50:13;0.00;;;0.00;;
19645;SDS011;9971;52.446;13.452;2024-03-23T06:55:16;0.10;;;0.10;;
19645;SDS011;9971;52.446;13.452;2024-03-23T07:00:18;0.00;;;0.00;;
19645;SDS011;9971;52.446;13.452;2024-03-23T07:05:21;0.10;;;0.10;;
19645;SDS011;9971;52.446;13.452;2024-03-23T07:10:23;0.20;;;0.20;;
19645;SDS011;9971;52.446;13.452;2024-03-23T07:15:26;0.10;;;0.10;;
19645;SDS011;9971;52.446;13.452;2024-03-23T07:20:28;0.83;;;0.53;;
19645;SDS011;9971;52.446;13.452;2024-03-23T07:25:30;0.93;;;0.80;;
19645;SDS011;9971;52.446;13.452;2024-03-23T07:30:33;2.62;;;1.00;;
19645;SDS011;9971;52.446;13.452;2024-03-23T07:35:35;3.37;;;1.40;;
19645;SDS011;9971;52.446;13.452;2024-03-23T07:40:38;2.52;;;1.30;;
19645;SDS011;9971;52.446;13.452;2024-03-23T07:45:40;3.10;;;1.32;;
19645;SDS011;9971;52.446;13.452;2024-03-23T07:50:43;1.13;;;0.93;;
19645;SDS011;9971;52.446;13.452;2024-03-23T07:55:51;1.95;;;1.50;;
19645;SDS011;9971;52.446;13.452;2024-03-23T08:00:47;1.75;;;1.15;;
19645;SDS011;9971;52.446;13.452;2024-03-23T08:05:49;1.82;;;0.90;;
19645;SDS011;9971;52.446;13.452;2024-03-23T08:10:52;2.98;;;1.42;;
19645;SDS011;9971;52.446;13.452;2024-03-23T08:15:58;1.67;;;1.10;;
19645;SDS011;9971;52.446;13.452;2024-03-23T08:21:00;2.20;;;1.05;;
19645;SDS011;9971;52.446;13.452;2024-03-23T08:26:02;1.97;;;1.17;;
19645;SDS011;9971;52.446;13.452;2024-03-23T08:31:05;1.62;;;1.37;;
19645;SDS011;9971;52.446;13.452;2024-03-23T08:36:07;1.37;;;0.98;;
19645;SDS011;9971;52.446;13.452;2024-03-23T08:41:09;1.00;;;0.90;;
19645;SDS011;9971;52.446;13.452;2024-03-23T08:46:11;2.10;;;1.30;;
19645;SDS011;9971;52.446;13.452;2024-03-23T08:51:13;2.62;;;1.40;;
19645;SDS011;9971;52.446;13.452;2024-03-23T08:56:15;2.00;;;0.80;;
19645;SDS011;9971;52.446;13.452;2024-03-23T09:01:18;0.88;;;0.78;;
19645;SDS011;9971;52.446;13.452;2024-03-23T09:06:20;1.90;;;1.30;;
19645;SDS011;9971;52.446;13.452;2024-03-23T09:11:23;1.60;;;1.47;;
19645;SDS011;9971;52.446;13.452;2024-03-23T09:16:25;2.15;;;1.20;;
19645;SDS011;9971;52.446;13.452;2024-03-23T09:21:28;2.42;;;1.12;;
19645;SDS011;9971;52.446;13.452;2024-03-23T09:26:30;2.30;;;1.40;;
19645;SDS011;9971;52.446;13.452;2024-03-23T09:31:33;1.12;;;0.95;;
19645;SDS011;9971;52.446;13.452;2024-03-23T09:36:35;1.75;;;1.15;;
19645;SDS011;9971;52.446;13.452;2024-03-23T09:41:38;2.17;;;1.10;;
19645;SDS011;9971;52.446;13.452;2024-03-23T09:46:40;1.27;;;0.93;;
19645;SDS011;9971;52.446;13.452;2024-03-23T09:51:42;1.83;;;1.00;;
19645;SDS011;9971;52.446;13.452;2024-03-23T09:56:45;1.32;;;1.00;;
19645;SDS011;9971;52.446;13.452;2024-03-23T10:01:47;2.03;;;1.10;;
19645;SDS011;9971;52.446;13.452;2024-03-23T10:06:49;2.33;;;1.23;;
19645;SDS011;9971;52.446;13.452;2024-03-23T10:11:52;1.95;;;1.15;;
19645;SDS011;9971;52.446;13.452;2024-03-23T10:16:54;1.83;;;1.73;;
19645;SDS011;9971;52.446;13.452;2024-03-23T10:21:56;2.08;;;1.30;;
19645;SDS011;9971;52.446;13.452;2024-03-23T10:26:59;2.43;;;1.40;;
19645;SDS011;9971;52.446;13.452;2024-03-23T10:37:09;1.87;;;0.97;;
19645;SDS011;9971;52.446;13.452;2024-03-23T10:42:11;1.80;;;1.10;;
19645;SDS011;9971;52.446;13.452;2024-03-23T10:47:13;1.62;;;0.78;;
19645;SDS011;9971;52.446;13.452;2024-03-23T10:52:16;1.82;;;1.22;;
19645;SDS011;9971;52.446;13.452;2024-03-23T10:57:20;1.93;;;1.17;;
19645;SDS011;9971;52.446;13.452;2024-03-23T11:02:20;2.47;;;1.40;;
19645;SDS011;9971;52.446;13.452;2024-03-23T11:07:30;3.33;;;1.63;;
19645;SDS011;9971;52.446;13.452;2024-03-23T11:12:32;2.60;;;1.10;;
19645;SDS011;9971;52.446;13.452;2024-03-23T11:17:35;2.08;;;1.25;;
19645;SDS011;9971;52.446;13.452;2024-03-23T11:22:39;1.40;;;1.17;;
19645;SDS011;9971;52.446;13.452;2024-03-23T11:27:43;1.27;;;0.87;;
19645;SDS011;9971;52.446;13.452;2024-03-23T11:32:45;1.55;;;0.90;;
19645;SDS011;9971;52.446;13.452;2024-03-23T11:37:47;2.63;;;1.33;;
19645;SDS011;9971;52.446;13.452;2024-03-23T11:42:54;1.40;;;1.10;;
19645;SDS011;9971;52.446;13.452;2024-03-23T11:53:07;1.27;;;1.00;;
19645;SDS011;9971;52.446;13.452;2024-03-23T11:58:10;1.50;;;1.10;;
19645;SDS011;9971;52.446;13.452;2024-03-23T12:03:11;1.73;;;0.93;;
19645;SDS011;9971;52.446;13.452;2024-03-23T12:08:23;4.62;;;1.50;;
19645;SDS011;9971;52.446;13.452;2024-03-23T12:13:26;1.90;;;1.20;;
19645;SDS011;9971;52.446;13.452;2024-03-23T12:18:29;2.30;;;1.30;;
19645;SDS011;9971;52.446;13.452;2024-03-23T12:23:31;1.07;;;0.98;;
19645;SDS011;9971;52.446;13.452;2024-03-23T12:28:34;3.22;;;1.67;;
19645;SDS011;9971;52.446;13.452;2024-03-23T12:33:36;2.20;;;1.27;;
19645;SDS011;9971;52.446;13.452;2024-03-23T12:38:39;2.75;;;1.57;;
19645;SDS011;9971;52.446;13.452;2024-03-23T12:43:41;3.90;;;1.92;;
19645;SDS011;9971;52.446;13.452;2024-03-23T12:48:44;3.05;;;1.57;;
19645;SDS011;9971;52.446;13.452;2024-03-23T12:53:46;3.55;;;1.45;;
19645;SDS011;9971;52.446;13.452;2024-03-23T12:58:49;2.15;;;1.17;;
19645;SDS011;9971;52.446;13.452;2024-03-23T13:03:51;1.77;;;1.20;;
19645;SDS011;9971;52.446;13.452;2024-03-23T13:08:53;3.43;;;1.50;;
19645;SDS011;9971;52.446;13.452;2024-03-23T13:13:56;3.58;;;1.70;;
19645;SDS011;9971;52.446;13.452;2024-03-23T13:18:58;2.53;;;1.53;;
19645;SDS011;9971;52.446;13.452;2024-03-23T13:24:01;2.50;;;0.93;;
19645;SDS011;9971;52.446;13.452;2024-03-23T13:29:03;3.02;;;1.15;;
19645;SDS011;9971;52.446;13.452;2024-03-23T13:34:06;1.55;;;1.07;;
19645;SDS011;9971;52.446;13.452;2024-03-23T13:39:08;3.95;;;1.52;;
19645;SDS011;9971;52.446;13.452;2024-03-23T13:44:13;2.23;;;1.30;;
19645;SDS011;9971;52.446;13.452;2024-03-23T13:49:24;5.93;;;1.70;;
19645;SDS011;9971;52.446;13.452;2024-03-23T13:54:34;4.03;;;1.80;;
19645;SDS011;9971;52.446;13.452;2024-03-23T13:59:36;3.47;;;1.73;;
19645;SDS011;9971;52.446;13.452;2024-03-23T14:04:39;4.20;;;1.82;;
19645;SDS011;9971;52.446;13.452;2024-03-23T14:09:41;3.83;;;1.60;;
19645;SDS011;9971;52.446;13.452;2024-03-23T14:14:44;3.12;;;1.45;;
19645;SDS011;9971;52.446;13.452;2024-03-23T14:19:46;3.22;;;1.77;;
19645;SDS011;9971;52.446;13.452;2024-03-23T14:24:48;3.77;;;1.95;;
19645;SDS011;9971;52.446;13.452;2024-03-23T14:29:51;2.60;;;1.35;;
19645;SDS011;9971;52.446;13.452;2024-03-23T14:34:54;2.60;;;1.40;;
19645;SDS011;9971;52.446;13.452;2024-03-23T14:39:56;2.60;;;1.87;;
19645;SDS011;9971;52.446;13.452;2024-03-23T14:44:58;1.87;;;1.30;;
19645;SDS011;9971;52.446;13.452;2024-03-23T14:50:00;4.47;;;1.77;;
19645;SDS011;9971;52.446;13.452;2024-03-23T14:55:02;1.98;;;1.07;;
19645;SDS011;9971;52.446;13.452;2024-03-23T15:00:07;2.25;;;1.65;;
19645;SDS011;9971;52.446;13.452;2024-03-23T15:05:09;2.73;;;1.40;;
19645;SDS011;9971;52.446;13.452;2024-03-23T15:10:11;1.70;;;1.30;;
19645;SDS011;9971;52.446;13.452;2024-03-23T15:15:14;1.95;;;1.15;;
19645;SDS011;9971;52.446;13.452;2024-03-23T15:20:17;1.32;;;1.20;;
19645;SDS011;9971;52.446;13.452;2024-03-23T15:25:19;1.80;;;1.10;;
19645;SDS011;9971;52.446;13.452;2024-03-23T15:30:21;1.32;;;1.05;;
19645;SDS011;9971;52.446;13.452;2024-03-23T15:35:24;1.12;;;1.02;;
19645;SDS011;9971;52.446;13.452;2024-03-23T15:40:26;1.85;;;1.10;;
19645;SDS011;9971;52.446;13.452;2024-03-23T15:45:29;3.22;;;1.70;;
19645;SDS011;9971;52.446;13.452;2024-03-23T15:50:31;4.20;;;1.55;;
19645;SDS011;9971;52.446;13.452;2024-03-23T15:55:34;2.47;;;1.55;;
19645;SDS011;9971;52.446;13.452;2024-03-23T16:00:36;3.22;;;1.60;;
19645;SDS011;9971;52.446;13.452;2024-03-23T16:05:38;2.35;;;1.60;;
19645;SDS011;9971;52.446;13.452;2024-03-23T16:10:41;4.35;;;2.05;;
19645;SDS011;9971;52.446;13.452;2024-03-23T16:15:44;3.05;;;1.87;;
19645;SDS011;9971;52.446;13.452;2024-03-23T16:20:52;3.90;;;1.57;;
19645;SDS011;9971;52.446;13.452;2024-03-23T16:25:55;2.87;;;1.50;;
19645;SDS011;9971;52.446;13.452;2024-03-23T16:30:58;2.03;;;1.53;;
19645;SDS011;9971;52.446;13.452;2024-03-23T16:36:01;3.30;;;1.73;;
19645;SDS011;9971;52.446;13.452;2024-03-23T16:41:03;5.47;;;2.90;;
19645;SDS011;9971;52.446;13.452;2024-03-23T16:46:09;2.33;;;1.43;;
19645;SDS011;9971;52.446;13.452;2024-03-23T16:51:12;4.33;;;2.30;;
19645;SDS011;9971;52.446;13.452;2024-03-23T16:56:14;4.50;;;3.00;;
19645;SDS011;9971;52.446;13.452;2024-03-23T17:01:16;3.50;;;2.20;;
19645;SDS011;9971;52.446;13.452;2024-03-23T17:06:19;2.27;;;2.00;;
19645;SDS011;9971;52.446;13.452;2024-03-23T17:11:22;2.13;;;1.60;;
19645;SDS011;9971;52.446;13.452;2024-03-23T17:16:24;2.30;;;1.67;;
19645;SDS011;9971;52.446;13.452;2024-03-23T17:21:27;2.65;;;1.82;;
19645;SDS011;9971;52.446;13.452;2024-03-23T17:26:29;3.17;;;1.83;;
19645;SDS011;9971;52.446;13.452;2024-03-23T17:31:31;2.72;;;2.25;;
19645;SDS011;9971;52.446;13.452;2024-03-23T17:36:33;7.22;;;5.90;;
19645;SDS011;9971;52.446;13.452;2024-03-23T17:41:36;3.05;;;2.15;;
19645;SDS011;9971;52.446;13.452;2024-03-23T17:46:38;2.90;;;1.47;;
19645;SDS011;9971;52.446;13.452;2024-03-23T17:51:41;2.73;;;1.77;;
19645;SDS011;9971;52.446;13.452;2024-03-23T17:56:43;2.80;;;2.60;;
19645;SDS011;9971;52.446;13.452;2024-03-23T18:01:45;4.12;;;2.20;;
19645;SDS011;9971;52.446;13.452;2024-03-23T18:06:49;3.00;;;2.27;;
19645;SDS011;9971;52.446;13.452;2024-03-23T18:11:50;3.12;;;2.17;;
19645;SDS011;9971;52.446;13.452;2024-03-23T18:16:52;3.35;;;2.45;;
19645;SDS011;9971;52.446;13.452;2024-03-23T18:21:55;2.93;;;2.30;;
19645;SDS011;9971;52.446;13.452;2024-03-23T18:26:57;3.00;;;2.50;;
19645;SDS011;9971;52.446;13.452;2024-03-23T18:32:00;3.35;;;2.72;;
19645;SDS011;9971;52.446;13.452;2024-03-23T18:37:02;2.42;;;2.22;;
19645;SDS011;9971;52.446;13.452;2024-03-23T18:42:05;1.95;;;1.65;;
19645;SDS011;9971;52.446;13.452;2024-03-23T18:47:07;1.45;;;1.20;;
19645;SDS011;9971;52.446;13.452;2024-03-23T18:52:10;5.78;;;4.60;;
19645;SDS011;9971;52.446;13.452;2024-03-23T18:57:12;5.12;;;3.58;;
19645;SDS011;9971;52.446;13.452;2024-03-23T19:02:15;2.00;;;1.17;;
19645;SDS011;9971;52.446;13.452;2024-03-23T19:07:17;4.00;;;2.45;;
19645;SDS011;9971;52.446;13.452;2024-03-23T19:12:20;1.77;;;1.50;;
19645;SDS011;9971;52.446;13.452;2024-03-23T19:17:22;3.00;;;2.20;;
19645;SDS011;9971;52.446;13.452;2024-03-23T19:22:25;5.35;;;2.20;;
19645;SDS011;9971;52.446;13.452;2024-03-23T19:27:27;4.33;;;3.55;;
19645;SDS011;9971;52.446;13.452;2024-03-23T19:32:32;3.30;;;1.77;;
19645;SDS011;9971;52.446;13.452;2024-03-23T19:37:36;2.90;;;2.63;;
19645;SDS011;9971;52.446;13.452;2024-03-23T19:42:41;3.60;;;3.00;;
19645;SDS011;9971;52.446;13.452;2024-03-23T19:47:44;2.93;;;1.63;;
19645;SDS011;9971;52.446;13.452;2024-03-23T19:52:51;2.07;;;1.57;;
19645;SDS011;9971;52.446;13.452;2024-03-23T19:57:55;7.23;;;5.63;;
19645;SDS011;9971;52.446;13.452;2024-03-23T20:02:58;2.20;;;2.00;;
19645;SDS011;9971;52.446;13.452;2024-03-23T20:08:00;2.57;;;2.00;;
19645;SDS011;9971;52.446;13.452;2024-03-23T20:13:03;2.67;;;2.37;;
19645;SDS011;9971;52.446;13.452;2024-03-23T20:18:06;4.35;;;3.22;;
19645;SDS011;9971;52.446;13.452;2024-03-23T20:23:10;5.10;;;4.60;;
19645;SDS011;9971;52.446;13.452;2024-03-23T20:28:15;3.13;;;2.70;;
19645;SDS011;9971;52.446;13.452;2024-03-23T20:33:17;6.23;;;3.73;;
19645;SDS011;9971;52.446;13.452;2024-03-23T20:38:20;6.70;;;6.08;;
19645;SDS011;9971;52.446;13.452;2024-03-23T20:43:26;3.20;;;2.90;;
19645;SDS011;9971;52.446;13.452;2024-03-23T20:48:28;4.70;;;2.10;;
19645;SDS011;9971;52.446;13.452;2024-03-23T20:53:30;4.47;;;2.62;;
19645;SDS011;9971;52.446;13.452;2024-03-23T20:58:36;5.70;;;2.55;;
19645;SDS011;9971;52.446;13.452;2024-03-23T21:03:39;3.35;;;2.52;;
19645;SDS011;9971;52.446;13.452;2024-03-23T21:08:41;4.80;;;4.00;;
19645;SDS011;9971;52.446;13.452;2024-03-23T21:13:44;3.87;;;3.17;;
19645;SDS011;9971;52.446;13.452;2024-03-23T21:18:49;4.23;;;3.83;;
19645;SDS011;9971;52.446;13.452;2024-03-23T21:23:53;2.40;;;2.20;;
19645;SDS011;9971;52.446;13.452;2024-03-23T21:28:57;2.63;;;2.17;;
19645;SDS011;9971;52.446;13.452;2024-03-23T21:34:02;3.70;;;3.27;;
19645;SDS011;9971;52.446;13.452;2024-03-23T21:39:06;4.50;;;3.60;;
19645;SDS011;9971;52.446;13.452;2024-03-23T21:44:10;5.70;;;2.97;;
19645;SDS011;9971;52.446;13.452;2024-03-23T21:49:13;4.33;;;2.80;;
19645;SDS011;9971;52.446;13.452;2024-03-23T21:54:18;5.57;;;4.07;;
19645;SDS011;9971;52.446;13.452;2024-03-23T21:59:21;4.72;;;3.85;;
19645;SDS011;9971;52.446;13.452;2024-03-23T22:04:24;9.55;;;8.55;;
19645;SDS011;9971;52.446;13.452;2024-03-23T22:09:28;4.53;;;3.50;;
19645;SDS011;9971;52.446;13.452;2024-03-23T22:14:31;4.07;;;3.47;;
19645;SDS011;9971;52.446;13.452;2024-03-23T22:19:35;3.47;;;3.17;;
19645;SDS011;9971;52.446;13.452;2024-03-23T22:24:39;6.00;;;5.40;;
19645;SDS011;9971;52.446;13.452;2024-03-23T22:29:42;3.60;;;3.25;;
19645;SDS011;9971;52.446;13.452;2024-03-23T22:34:47;6.15;;;4.58;;
19645;SDS011;9971;52.446;13.452;2024-03-23T22:39:51;3.83;;;2.90;;
19645;SDS011;9971;52.446;13.452;2024-03-23T22:44:54;3.20;;;2.80;;
19645;SDS011;9971;52.446;13.452;2024-03-23T22:49:56;3.62;;;3.00;;
19645;SDS011;9971;52.446;13.452;2024-03-23T22:54:59;3.70;;;2.92;;
19645;SDS011;9971;52.446;13.452;2024-03-23T23:00:02;3.02;;;2.72;;
19645;SDS011;9971;52.446;13.452;2024-03-23T23:05:11;2.65;;;2.45;;
19645;SDS011;9971;52.446;13.452;2024-03-23T23:10:14;4.12;;;3.00;;
19645;SDS011;9971;52.446;13.452;2024-03-23T23:15:18;3.00;;;2.50;;
19645;SDS011;9971;52.446;13.452;2024-03-23T23:20:20;3.23;;;2.80;;
19645;SDS011;9971;52.446;13.452;2024-03-23T23:25:23;2.72;;;2.50;;
19645;SDS011;9971;52.446;13.452;2024-03-23T23:30:25;3.80;;;2.98;;
19645;SDS011;9971;52.446;13.452;2024-03-23T23:35:27;3.85;;;2.87;;
19645;SDS011;9971;52.446;13.452;2024-03-23T23:40:30;3.52;;;2.90;;
19645;SDS011;9971;52.446;13.452;2024-03-23T23:45:32;3.33;;;3.00;;
19645;SDS011;9971;52.446;13.452;2024-03-23T23:50:35;4.87;;;3.27;;
19645;SDS011;9971;52.446;13.452;2024-03-23T23:55:37;2.95;;;2.70;;
